AirNav   ProFlight Series 2 Aviation Headset
 
 611 users online  

VG33 Bull Farm Airport
Cape Charles, Virginia, USA

GOING TO CAPE CHARLES?


FAA INFORMATION EFFECTIVE 16 JULY 2020

Location

FAA Identifier: VG33
Lat/Long: 37-09-16.5100N 075-57-24.7480W
37-09.275167N 075-57.412467W
37.1545861,-75.9568744
(estimated)
Elevation: 18 ft. / 5 m (estimated)
Variation: 10W (1985)
From city: 7 miles SE of CAPE CHARLES, VA
Time zone: UTC -4 (UTC -5 during Standard Time)
Zip code: 23310

Airport Operations

Airport use: Private use. Permission required prior to landing
Activation date: 07/1971
Control tower: no
ARTCC: WASHINGTON CENTER
FSS: LEESBURG FLIGHT SERVICE STATION
Attendance: SR-SS
Wind indicator: yes
Segmented circle: no

Airport Communications

WX ASOS at ORF (20 nm SW): PHONE 757-460-9348

Nearby radio navigation aids

VOR radial/distance  VOR name  Freq  Var
CCVr180/11.7CAPE CHARLES VORTAC112.2010W
ORFr043/19.6NORFOLK VORTAC116.9007W

Airport Services

Runway Information

Runway 2/20

Dimensions: 3000 x 50 ft. / 914 x 15 m
Surface: turf
RUNWAY 2  RUNWAY 20
Traffic pattern: leftleft
Obstructions: trees, 700 ft. from runwaytrees, 700 ft. from runway

Airport Ownership and Management from official FAA records

Ownership: Privately-owned
Owner: J D BULL
P.O. BOX 124
TOWNSEND, VA 23443
Phone 757-331-2218
Manager: J D BULL
P.O. BOX 124
TOWNSEND, VA 23443
Phone 804-331-3894

Additional Remarks

FOR CD CTC NORFOLK APCH AT 757-464-0757.

Instrument Procedures

There are no published instrument procedures at VG33.

Some nearby airports with instrument procedures:

KORF - Norfolk International Airport (20 nm SW)
KLFI - Langley Air Force Base (20 nm W)
KNTU - Oceana Naval Air Station (Apollo Soucek Field) (20 nm S)
KNGU - Norfolk Naval Station (Chambers Field) (21 nm SW)
KPHF - Newport News/Williamsburg International Airport (26 nm W)
 
Loc | Ops | Rwys | IFR | FBO | Links
Com | Nav | Svcs | Stats | Notes
Area around VG33 (Bull Farm Airport)
 
Road maps at: MapQuest Bing Google
 
Aerial photo
No photo
 
Sectional chart

 
Airport distance calculator
Flying to Bull Farm Airport? Find the distance to fly.

From to VG33

Sunrise and sunset
Times for 06-Aug-2020
 Local
(UTC-4)
 Zulu
(UTC)
Morning civil twilight05:4609:46
Sunrise06:1510:15
Sunset20:0500:05
Evening civil twilight20:3300:33

Current date and time
Zulu (UTC)  06-Aug-2020 11:21:42
Local (UTC-4)  06-Aug-2020 07:21:42
 
METAR
KORF 
19nm SW 
061051Z 18003KT 9SM BKN095 26/24 A3004 RMK AO2 SLP173 T02610244
KLFI 
20nm W 
060956Z AUTO 23003KT 10SM CLR 25/25 A3005 RMK AO2 SLP182 T02470247 $
KNTU 
20nm S 
061056Z 16004KT 10SM FEW036 26/24 A3005 RMK AO2 SLP177 T02560239
KNGU 
21nm SW 
060959Z 19004KT 10SM FEW017TCU SCT100 BKN250 26/23 A3006 RMK AO2 SLP179 TCU E T02560228 $
KPHF 
26nm W 
061054Z AUTO 00000KT 7SM SCT095 26/23 A3005 RMK AO2 SLP175 T02560233
KNFE 
29nm S 
061056Z AUTO 00000KT 7SM CLR 23/23 A3006 RMK AO2 SLP180 T02330233
KMFV 
30nm N 
060835Z AUTO 15003KT 7SM CLR 24/23 A3004 RMK AO2 LTG DSNT SE T02410225
KFAF 
32nm W 
060956Z 18003KT 10SM BKN070 BKN100 26/24 A3002 RMK AO2A SLP169 T02570244 $
KPVG 
33nm SW 
061056Z AUTO 00000KT 6SM BR FEW100 21/21 A3006 RMK AO2 SLP181 T02110211
KCPK 
34nm SW 
061055Z AUTO 00000KT 4SM BR SCT002 22/21 A3006 RMK AO2 LTG DSNT E AND S T02180212
TAF
KORF 
19nm SW 
060520Z 0606/0706 18004KT P6SM BKN150 FM061400 13006KT P6SM BKN030 FM061700 12008KT P6SM VCTS BKN040CB FM070000 16004KT P6SM BKN100
KLFI 
20nm W 
060933Z 0609/0715 VRB06KT 9999 BKN015 QNH3004INS TEMPO 0609/0614 6000 BR BKN010 BECMG 0617/0618 16009KT 8000 -SHRA SCT015 BKN055 QNH3006INS TEMPO 0619/0701 19015G20KT 6000 -TSRA BKN012CB OVC019 BECMG 0712/0713 24012KT 9999 NSW BKN020 QNH3004INS TX28/0618Z TN24/0609Z
KNTU 
20nm S 
0607/0707 VRB05KT 9999 FEW040 SCT250 QNH2998INS FM061000 VRB05KT 9000 BR VCSH BKN030 BKN250 QNH3000INS BECMG 0616/0618 15010KT 9999 VCTS SCT040CB BKN100 QNH2995INS TEMPO 0616/0622 VRB15G25KT 6000 TSRA BKN010CB BKN050 FM070200 22008KT 9999 VCSH FEW030 QNH2998INS T24/0610Z T30/0619Z FN00223
KNGU 
21nm SW 
0607/0707 VRB05KT 9999 FEW040 SCT250 QNH2998INS FM061000 VRB05KT 9000 BR VCSH BKN030 BKN250 QNH3000INS BECMG 0616/0618 15010KT 9999 VCTS SCT040CB BKN100 QNH2995INS TEMPO 0616/0622 VRB15G25KT 6000 TSRA BKN010CB BKN050 FM070200 22008KT 9999 VCSH FEW030 QNH2998INS T24/0610Z T30/0619Z FN00223
NOTAMs
Click for the latest NOTAMs
NOTAMs are issued by the DoD/FAA and will open in a separate window not controlled by AirNav.

 

 
 

Would you like to see your business listed on this page?

 If your business provides an interesting product or service to pilots, flight crews, aircraft, or users of the Bull Farm Airport, you should consider listing it here.  To start the listing process, click on the button below
 
Add a business
 

Other Pages about Bull Farm Airport

Update a link
 
Copyright © AirNav, LLC. All rights reserved. Privacy Policy  Contact